Wind EuroAirport

Messzeit Windrichtung Windgeschwindigkeit [Knoten] Rückenwind Nordpiste [Knoten] METAR
2017-06-27 03:30 O 110°
(80°–140°)
6 - LFSB 270130Z AUTO 11006KT 080V140 CAVOK 20/16 Q1011 TEMPO SHRA SCT060TCU
2017-06-27 03:00 SO 130°
(100°–160°)
6 - LFSB 270100Z AUTO 13006KT 100V160 CAVOK 20/17 Q1011 TEMPO SHRA SCT060TCU
2017-06-27 02:30 SO 140° 6 - LFSB 270030Z AUTO 14006KT CAVOK 20/18 Q1011 TEMPO SHRA SCT060TCU
2017-06-27 02:00 SO 120° 7 - LFSB 270000Z AUTO 12007KT CAVOK 20/18 Q1011 TEMPO SHRA SCT060TCU
2017-06-27 01:30 O 100°
(70°–130°)
4 - LFSB 262330Z AUTO 10004KT 070V130 CAVOK 19/18 Q1011 TEMPO SHRA SCT060TCU
2017-06-27 01:00 O 70° 7 - LFSB 262300Z AUTO 07007KT 9999 FEW045/// OVC110/// ///TCU 20/18 Q1012 TEMPO 15010KT SHRA SCT080CB
2017-06-27 00:30 O 70° 6 - LFSB 262230Z AUTO 07006KT 9999 -RA SCT045/// SCT052/// BKN062/// ///CB 20/18 Q1012 TEMPO 15010KT SHRA BECMG NSC
2017-06-27 00:00 - 2 - LFSB 262200Z VRB02KT 9999 -SHRA BKN056 FEW083CB BKN086 22/17 Q1012 TEMPO SHRA
2017-06-26 23:30 SW 240°
(200°–280°)
4 0–2 LFSB 262130Z 24004KT 200V280 9999 SCT056 FEW083CB BKN100 24/14 Q1012 TEMPO SHRA
2017-06-26 23:00 SW 240°
(200°–260°)
7 0–1 LFSB 262100Z 24007KT 200V260 9999 FEW053 SCT066 FEW083CB BKN100 24/14 Q1012 TEMPO SHRA
2017-06-26 22:30 W 260° 6 1 LFSB 262030Z 26006KT 9999 FEW053 FEW083CB BKN086 24/14 Q1011 NOSIG
2017-06-26 22:00 W 250°
(220°–280°)
6 0–3 LFSB 262000Z 25006KT 220V280 9999 -SHRA FEW053 FEW083CB BKN100 24/14 Q1011 NOSIG
2017-06-26 21:39 SW 240°
(200°–280°)
8 0–4 LFSB 261939Z 24008KT 200V280 9999 -SHRA FEW060 FEW083CB BKN110 25/14 Q1011 NOSIG
2017-06-26 21:00 NW 300°
(270°–330°)
12 4–12 LFSB 261900Z 30012KT 270V330 9999 -SHRA FEW060 FEW083CB BKN110 26/14 Q1010 NOSIG
2017-06-26 20:30 W 280°
(250°–320°)
8 0–8 LFSB 261830Z 28008KT 250V320 9999 FEW086CB BKN090 BKN140 27/13 Q1011 NOSIG
2017-06-26 19:30 NW 300° 7 5 LFSB 261730Z 30007KT 9999 FEW100CB BKN160 28/12 Q1010 NOSIG
2017-06-26 19:00 N 340°
(310°–20°)
8 6–8 LFSB 261700Z 34008KT 310V020 9999 FEW100CB BKN160 29/12 Q1009 NOSIG
2017-06-26 18:30 N 350° 8 8 LFSB 261630Z 35008KT CAVOK 30/13 Q1009 NOSIG
2017-06-26 18:00 var 360°
(330°–30°)
8 5–8 LFSB 261600Z 36008KT 330V030 9999 FEW083TCU BKN200 31/13 Q1009 NOSIG
2017-06-26 17:30 N 10°
(340°–40°)
8 4–8 LFSB 261530Z 01008KT 340V040 9999 FEW083TCU BKN190 BKN260 31/13 Q1009 NOSIG
2017-06-26 17:00 N 10°
(330°–50°)
8 3–8 LFSB 261500Z 01008KT 330V050 CAVOK 31/14 Q1009 NOSIG
2017-06-26 16:30 N 10°
(310°–50°)
7 2–7 LFSB 261430Z 01007KT 310V050 CAVOK 31/13 Q1010 NOSIG
2017-06-26 16:00 - 4 - LFSB 261400Z VRB04KT CAVOK 31/13 Q1010 NOSIG
2017-06-26 15:30 - 5 - LFSB 261330Z VRB05KT CAVOK 31/12 Q1011 NOSIG
2017-06-26 15:00 N 350°
(290°–60°)
6 1–6 LFSB 261300Z 35006KT 290V060 CAVOK 31/14 Q1011 NOSIG
2017-06-26 14:30 - 4 - LFSB 261230Z VRB04KT CAVOK 31/13 Q1011 NOSIG
2017-06-26 14:00 - 4 - LFSB 261200Z VRB04KT CAVOK 31/13 Q1011 NOSIG
2017-06-26 13:30 O 100°
(60°–200°)
5 0–1 LFSB 261130Z 10005KT 060V200 CAVOK 30/11 Q1012 NOSIG
2017-06-26 13:00 - 3 - LFSB 261100Z VRB03KT CAVOK 29/11 Q1012 NOSIG
2017-06-26 12:30 - 3 - LFSB 261030Z VRB03KT CAVOK 29/12 Q1012 NOSIG
2017-06-26 12:00 NO 50°
(320°–130°)
3 0–3 LFSB 261000Z 05003KT 320V130 CAVOK 28/13 Q1013 NOSIG
2017-06-26 11:30 - 5 - LFSB 260930Z VRB05KT CAVOK 27/12 Q1013 NOSIG
2017-06-26 11:00 O 110°
(50°–180°)
5 0–2 LFSB 260900Z 11005KT 050V180 CAVOK 26/13 Q1013 NOSIG
2017-06-26 10:30 - 4 - LFSB 260830Z VRB04KT CAVOK 26/13 Q1014 NOSIG
2017-06-26 10:00 - 3 - LFSB 260800Z VRB03KT CAVOK 25/14 Q1014 NOSIG
2017-06-26 09:30 SO 150°
(60°–220°)
3 0–1 LFSB 260730Z 15003KT 060V220 CAVOK 24/13 Q1014 NOSIG
2017-06-26 09:00 - 3 - LFSB 260700Z VRB03KT CAVOK 22/13 Q1014 NOSIG
2017-06-26 08:30 SO 130°
(90°–160°)
5 - LFSB 260630Z 13005KT 090V160 CAVOK 21/13 Q1015 NOSIG
2017-06-26 08:00 SO 130°
(90°–160°)
6 - LFSB 260600Z 13006KT 090V160 CAVOK 20/13 Q1015 NOSIG
2017-06-26 07:00 - 2 - LFSB 260500Z VRB02KT CAVOK 18/13 Q1015 NOSIG
2017-06-26 06:30 - 3 - LFSB 260430Z VRB03KT CAVOK 16/13 Q1015 NOSIG
2017-06-26 06:00 - 2 - LFSB 260400Z VRB02KT CAVOK 15/12 Q1015 NOSIG
2017-06-26 05:30 S 180° 3 - LFSB 260330Z 18003KT CAVOK 15/12 Q1015 NOSIG
2017-06-26 05:00 - 2 - LFSB 260300Z VRB02KT CAVOK 15/12 Q1015 NOSIG
2017-06-26 04:30 SO 130° 2 - LFSB 260230Z 13002KT CAVOK 15/13 Q1016 NOSIG
2017-06-26 04:00 O 90° 1 - LFSB 260200Z AUTO 09001KT CAVOK 15/13 Q1016 NOSIG